Flight Track Log - Related Links

Times and Time Zones

All times are in EDT time to prevent confusion due to time zone crossing. See the FLG3861 flight status page for this flight to view local times or setup timezone preferences in your user account.

Time Position Orientation Groundspeed Altitude Reporting Facility
EDT Latitude Longitude Course Direction KTS MPH feet Rate Location/Type
Wed 09:43:14 PM 42.1881 -83.3561 178° South 168 193 1,400  Level Cleveland Center
Wed 09:44:27 PM 42.1256 -83.3531 178° South 204 235 3,800 1,722 Climbing Cleveland Center
Wed 09:45:09 PM 42.0886 -83.3483 175° South 208 239 4,700 1,700 Climbing Cleveland Center
Wed 09:45:27 PM 42.0647 -83.3247 144° Southeast 288 331 5,500 2,687 Climbing Cleveland Center
Wed 09:46:16 PM 42.0372 -83.2478 116° Southeast 284 327 7,700 2,229 Climbing Cleveland Center
Wed 09:47:12 PM 42.0450 -83.1658 83° East 298 343 9,400 1,590 Climbing Cleveland Center
Wed 09:48:13 PM 42.0914 -83.0686 57° Northeast 313 360 10,800 1,475 Climbing Cleveland Center
Wed 09:49:14 PM 42.1522 -82.9328 59° Northeast 354 407 12,400 1,525 Climbing Cleveland Center
Wed 09:50:15 PM 42.2058 -82.8139 59° Northeast 371 427 13,900 1,463 Climbing Cleveland Center
Wed 09:51:17 PM 42.2614 -82.6925 58° Northeast 381 438 15,400 1,366 Climbing Cleveland Center
Wed 09:52:18 PM 42.3156 -82.5697 59° Northeast 384 442 16,700 1,180 Climbing Cleveland Center
Wed 09:53:19 PM 42.3667 -82.4419 62° Northeast 386 444 17,800 1,122 Climbing Cleveland Center
Wed 09:54:21 PM 42.3608 -82.2911 93° East 397 457 19,000 1,122 Climbing Cleveland Center
Wed 09:55:22 PM 42.3544 -82.1219 93° East 401 461 20,100 1,024 Climbing Cleveland Center
Wed 09:56:24 PM 42.3475 -81.9672 93° East 405 466 21,100 927 Climbing Cleveland Center
Wed 09:57:25 PM 42.3406 -81.8125 93° East 407 468 22,000 787 Climbing Cleveland Center
Wed 09:58:26 PM 42.3331 -81.6542 94° East 416 479 22,700 683 Climbing Cleveland Center
Wed 09:59:28 PM 42.3258 -81.4931 93° East 422 486 23,400 683 Climbing Cleveland Center
Wed 10:00:29 PM 42.3178 -81.3300 94° East 429 494 24,100 689 Climbing Cleveland Center
Wed 10:01:30 PM 42.3097 -81.1669 94° East 431 496 24,800 683 Climbing Cleveland Center
Wed 10:02:32 PM 42.3019 -81.0031 94° East 432 497 25,500 683 Climbing Cleveland Center
Wed 10:03:33 PM 42.2931 -80.8397 94° East 432 497 26,200 738 Climbing Cleveland Center
Wed 10:04:34 PM 42.2842 -80.6772 94° East 430 495 27,000 390 Climbing Cleveland Center
Wed 10:05:36 PM 42.2753 -80.5128 94° East 433 498 27,000  Level Cleveland Center
Wed 10:06:37 PM 42.2658 -80.3414 94° East 451 519 27,000  Level Cleveland Center
Wed 10:07:39 PM 42.2558 -80.1667 94° East 460 529 27,000  Level Cleveland Center
Wed 10:08:40 PM 42.2442 -79.9739 95° East 466 536 27,000  Level Cleveland Center
Wed 10:09:41 PM 42.2344 -79.7986 94° East 470 541 27,000  Level Cleveland Center
Wed 10:10:43 PM 42.2222 -79.6236 95° East 472 543 27,000  Level Cleveland Center
Wed 10:11:44 PM 42.2103 -79.4483 95° East 473 544 27,000  Level Cleveland Center
Wed 10:12:45 PM 42.1986 -79.2739 95° East 471 542 27,000  Level Cleveland Center
Wed 10:13:47 PM 42.1900 -79.0972 94° East 473 544 27,000  Level Cleveland Center
Wed 10:14:48 PM 42.1922 -78.8989 89° East 471 542 27,000  Level Cleveland Center
Wed 10:15:49 PM 42.1961 -78.7247 88° East 468 539 27,000  Level Cleveland Center
Wed 10:16:51 PM 42.1994 -78.5486 88° East 471 542 27,000  Level Cleveland Center
Wed 10:17:52 PM 42.2017 -78.3719 89° East 473 544 27,000  Level Cleveland Center
Wed 10:18:53 PM 42.2044 -78.1633 89° East 470 541 27,000 -293 Level Cleveland Center
Wed 10:19:55 PM 42.2067 -77.9881 89° East 470 541 26,400 -780 Descending Cleveland Center
Wed 10:20:56 PM 42.2078 -77.8089 89° East 481 554 25,400 -976 Descending Cleveland Center
Wed 10:21:58 PM 42.2097 -77.6292 89° East 485 558 24,400 -1,073 Descending Cleveland Center
Wed 10:22:59 PM 42.2106 -77.4547 90° East 475 547 23,200 -1,279 Descending Cleveland Center
Wed 10:24:00 PM 42.2111 -77.2828 90° East 466 536 21,800 -1,366 Descending Cleveland Center
Wed 10:25:02 PM 42.2119 -77.1142 90° East 456 525 20,400 -1,584 Descending Cleveland Center
Wed 10:26:05 PM 42.2106 -76.9078 90° East 451 519 18,500 -2,311 Descending New York Center
Wed 10:27:04 PM 42.2111 -76.7603 90° East 426 490 15,700 -2,926 Descending Cleveland Center
Wed 10:28:06 PM 42.2114 -76.6161 90° East 392 451 12,600 -2,683 Descending Cleveland Center
Wed 10:29:07 PM 42.2117 -76.4919 90° East 334 384 10,200 -2,311 Descending Cleveland Center
Wed 10:30:08 PM 42.2111 -76.3903 90° East 285 328 7,900 -2,441 Descending Cleveland Center
Wed 10:31:05 PM 42.2092 -76.2944 92° East 284 327 5,400 -2,359 Descending New York Center
Wed 10:32:05 PM 42.2278 -76.2064 74° East 255 293 3,300 -1,150 Descending New York Center
Wed 10:33:05 PM 42.2522 -76.1272 67° East 234 269 3,100 -200 Descending New York Center
Wed 10:34:05 PM 42.2697 -76.0614 70° East 210 242 2,900 -350 Descending New York Center
Wed 10:35:05 PM 42.2489 -76.0150 121° Southeast 145 167 2,400 -450 Descending New York Center
Wed 10:36:05 PM 42.2367 -75.9608 107° East 137 158 2,000 -400 Descending New York Center

Login

Don't have an account? Register now (free) for customized features, flight alerts, and more!